Etusivu
METAR-TAF:

METAR-TAF

Lentoasemat :

Ålesund, Norja

Leveyspiiri: 62-34N, Pituuspiiri: 006-07E, korkeus merenpinnasta: 2 m

Tämänhetkinen sää

Tämä raportti tehtiin 14 minuuttia sitten, kello 11.20 UTC
Tuuli 9 kn pohjoisesta/koillisesta
Lämpötila 17°C
Kosteus 72%
Ilmanpaine 1016 hPa
Näkyvyys 10 km tai enemmän
Muutamia pilviä 1500 ft:n korkeudessa

METAR: ENAL 121120Z 03009KT 9999 FEW015 17/12 Q1016

Aika: 13:34 (11:34 UTC)

Sääennuste

Tämä raportti tehtiin 3 tuntia ja 34 minuuttia sitten, kello 08.00 UTC
Ennuste voimassa 12. päivästä klo 09 UTC - 12. päivään klo 18 UTC
Tuuli 10 kn koillisesta
Näkyvyys 10 km tai enemmän
Hajanaisia pilviä 1200 ft:n korkeudessa

TAF: ENAL 120800Z 1209/1218 04010KT 9999 SCT012

Säähavainnot ja -ennusteet yli 4000 lentoasemalta (METAR- ja TAF-raportit).

Käytössä olevat sääasemat on merkitty karttaan keltaisilla ja punaisilla pisteillä.

Aseta hiiri pisteen päälle nähdäksesi sääaseman nimen.

Klikkaa sitten nähdäksesi säähavainnot ja -ennusteet.

Kartan vaihtaminen: klikkaa mustalla rastilla varustettuja vihreitä pisteitä, niin voit zoomata sisään; viivalla varustettua vihreää pistettä, niin voit zoomata ulos tai vihreitä nuolia, niin pääset viereisille kartoille.


METAR-TAF: